• pl
  • eng

Awiacja
Komunikaty METAR z lotnisk wojskowych. 11:01 17.08.2018

METAR EPCE 170900Z 16007KT 110V220 CAVOK 24/15
Q1018 RMK 241 056 0/0 =

METAR EPDA 170900Z 16007KT 120V230 CAVOK 26/14
Q1016 RMK 257 049 0/0 =

METAR EPDE 170900Z 09010KT 9999 FEW040 SCT100 24/16 Q1019 RMK 243 059
3/2=

METAR EPIR 170900Z 13010KT 9999 FEW040 25/15 Q1018 RMK 250 053 2/2 =

METAR EPKS 170900Z 13010KT 9999 FEW040 26/15 Q1017 RMK 263 050 2/2=

METAR EPLK 170900Z 14007KT 110V180 9999 FEW040 25/16 Q1018 RMK 245
059 2/2=

METAR EPLY 170900Z 16006KT 9999 SCT040 25/16 Q1018 RMK 251 055 3/3=

METAR EPMB 170900Z 18006KT 140V220 CAVOK 25/14 Q1018 RMK 253 050
1/1=

METAR EPMI 170900Z 15007KT 110V180 CAVOK 25/14 Q1017 RMK 253 049
0/0=

METAR EPMM 170900Z 12010KT 9999 FEW033 22/16 Q1019 RMK 221 064 2/2=

METAR EPNA 170900Z 15004KT CAVOK 25/15 Q1017 RMK 248 054 0/0=

METAR EPOK 170900Z 13009KT CAVOK 23/17
Q1018 RMK 231 067 1/1 =

METAR EPPR 170900Z 15006KT CAVOK 25/14 Q1018 RMK 251 049 0/0=

METAR EPPW 170900Z 12010KT 9999 FEW040 26/15 Q1017 RMK 263 051 2/2=

METAR EPSN 170900Z 18007KT CAVOK 26/14 Q1016 RMK 261 047
0/0=

METAR EPTM 170900Z 13008KT 9999 FEW040 25/15 Q1018 RMK 248 054 2/2=
950
SAPL97 SOPR 170900 RRC
 METAR EPSN
Lokalizacja:EPSN Świdwin
Czas:09:00 UTC
Średni kierunek wiatru:180 °
Średnia prędkość wiatru:7 węzłów
CAVOK:Widzialność 10 km i więcej, zjawisko: NIL, zachmurzenie: NSC
Temperatura powietrza:26 °C
Temperatura punktu rosy:14 °C
Ciśnienie QNH:1016 hPa
Dokładna temperatura powietrza:26,1 °C
Dokładna wilgotność względna:47 %
Zachmurzenie przez wszystkie piętra chmur:0/8
Zachmurzenie przez chmury niskie:0/8
Awiacja.imgw.pl jest pogodowym serwisem informacyjnym
Instytutu Meteorologii i Gospodarki Wodnej Państwowego Instytutu Badawczego.
Copyright IMGW PIB 2009-2011© Wszelkie prawa zastrzeżone.